sensor_id;sensor_type;location;lat;lon;timestamp;P1;durP1;ratioP1;P2;durP2;ratioP2
6348;SDS011;3207;42.648;23.406;2022-09-09T00:02:10;7.10;;;6.40;;
6348;SDS011;3207;42.648;23.406;2022-09-09T00:04:45;12.10;;;7.10;;
6348;SDS011;3207;42.648;23.406;2022-09-09T00:07:21;10.65;;;7.10;;
6348;SDS011;3207;42.648;23.406;2022-09-09T00:10:03;9.57;;;6.45;;
6348;SDS011;3207;42.648;23.406;2022-09-09T00:12:41;7.75;;;6.95;;
6348;SDS011;3207;42.648;23.406;2022-09-09T00:15:16;8.73;;;7.30;;
6348;SDS011;3207;42.648;23.406;2022-09-09T00:17:47;7.78;;;6.97;;
6348;SDS011;3207;42.648;23.406;2022-09-09T00:20:21;8.25;;;7.18;;
6348;SDS011;3207;42.648;23.406;2022-09-09T00:22:55;10.27;;;7.10;;
6348;SDS011;3207;42.648;23.406;2022-09-09T00:25:28;8.88;;;7.97;;
6348;SDS011;3207;42.648;23.406;2022-09-09T00:28:02;9.98;;;7.53;;
6348;SDS011;3207;42.648;23.406;2022-09-09T00:30:35;9.52;;;7.95;;
6348;SDS011;3207;42.648;23.406;2022-09-09T00:33:08;10.45;;;7.88;;
6348;SDS011;3207;42.648;23.406;2022-09-09T00:35:42;8.52;;;7.65;;
6348;SDS011;3207;42.648;23.406;2022-09-09T00:38:12;8.95;;;8.05;;
6348;SDS011;3207;42.648;23.406;2022-09-09T00:40:45;9.05;;;7.75;;
6348;SDS011;3207;42.648;23.406;2022-09-09T00:43:27;9.25;;;8.32;;
6348;SDS011;3207;42.648;23.406;2022-09-09T00:46:02;10.82;;;9.10;;
6348;SDS011;3207;42.648;23.406;2022-09-09T00:48:42;9.45;;;8.25;;
6348;SDS011;3207;42.648;23.406;2022-09-09T00:51:22;9.90;;;8.98;;
6348;SDS011;3207;42.648;23.406;2022-09-09T00:54:10;10.48;;;9.38;;
6348;SDS011;3207;42.648;23.406;2022-09-09T00:56:47;10.05;;;8.35;;
6348;SDS011;3207;42.648;23.406;2022-09-09T00:59:28;9.48;;;8.38;;
6348;SDS011;3207;42.648;23.406;2022-09-09T01:02:02;10.32;;;9.13;;
6348;SDS011;3207;42.648;23.406;2022-09-09T01:04:38;10.60;;;8.48;;
6348;SDS011;3207;42.648;23.406;2022-09-09T01:07:11;10.10;;;9.20;;
6348;SDS011;3207;42.648;23.406;2022-09-09T01:09:45;8.98;;;8.07;;
6348;SDS011;3207;42.648;23.406;2022-09-09T01:12:23;9.15;;;8.25;;
6348;SDS011;3207;42.648;23.406;2022-09-09T01:14:53;12.95;;;8.50;;
6348;SDS011;3207;42.648;23.406;2022-09-09T01:17:30;11.93;;;8.25;;
6348;SDS011;3207;42.648;23.406;2022-09-09T01:20:02;9.40;;;7.88;;
6348;SDS011;3207;42.648;23.406;2022-09-09T01:22:40;11.15;;;8.07;;
6348;SDS011;3207;42.648;23.406;2022-09-09T01:25:20;10.02;;;8.60;;
6348;SDS011;3207;42.648;23.406;2022-09-09T01:27:54;9.57;;;7.75;;
6348;SDS011;3207;42.648;23.406;2022-09-09T01:30:24;9.75;;;7.35;;
6348;SDS011;3207;42.648;23.406;2022-09-09T01:32:53;9.23;;;8.32;;
6348;SDS011;3207;42.648;23.406;2022-09-09T01:35:27;9.23;;;8.43;;
6348;SDS011;3207;42.648;23.406;2022-09-09T01:38:00;8.63;;;7.28;;
6348;SDS011;3207;42.648;23.406;2022-09-09T01:40:27;9.15;;;8.30;;
6348;SDS011;3207;42.648;23.406;2022-09-09T01:42:55;9.05;;;8.25;;
6348;SDS011;3207;42.648;23.406;2022-09-09T01:45:22;8.57;;;7.78;;
6348;SDS011;3207;42.648;23.406;2022-09-09T01:47:50;11.95;;;7.82;;
6348;SDS011;3207;42.648;23.406;2022-09-09T01:50:19;8.98;;;8.07;;
6348;SDS011;3207;42.648;23.406;2022-09-09T01:52:47;10.48;;;7.65;;
6348;SDS011;3207;42.648;23.406;2022-09-09T01:55:16;8.93;;;8.05;;
6348;SDS011;3207;42.648;23.406;2022-09-09T01:57:48;8.98;;;7.85;;
6348;SDS011;3207;42.648;23.406;2022-09-09T02:00:23;10.07;;;7.85;;
6348;SDS011;3207;42.648;23.406;2022-09-09T02:02:53;10.10;;;7.13;;
6348;SDS011;3207;42.648;23.406;2022-09-09T02:05:28;10.02;;;7.82;;
6348;SDS011;3207;42.648;23.406;2022-09-09T02:08:03;10.32;;;7.68;;
6348;SDS011;3207;42.648;23.406;2022-09-09T02:10:39;9.10;;;8.15;;
6348;SDS011;3207;42.648;23.406;2022-09-09T02:13:12;8.40;;;7.60;;
6348;SDS011;3207;42.648;23.406;2022-09-09T02:15:42;8.10;;;7.30;;
6348;SDS011;3207;42.648;23.406;2022-09-09T02:18:13;9.48;;;7.78;;
6348;SDS011;3207;42.648;23.406;2022-09-09T02:20:44;8.50;;;6.65;;
6348;SDS011;3207;42.648;23.406;2022-09-09T02:23:12;7.53;;;6.70;;
6348;SDS011;3207;42.648;23.406;2022-09-09T02:25:41;8.00;;;7.25;;
6348;SDS011;3207;42.648;23.406;2022-09-09T02:28:09;7.57;;;6.82;;
6348;SDS011;3207;42.648;23.406;2022-09-09T02:30:38;12.48;;;6.85;;
6348;SDS011;3207;42.648;23.406;2022-09-09T02:33:09;7.53;;;6.88;;
6348;SDS011;3207;42.648;23.406;2022-09-09T02:35:38;8.73;;;7.05;;
6348;SDS011;3207;42.648;23.406;2022-09-09T02:38:07;6.95;;;6.20;;
6348;SDS011;3207;42.648;23.406;2022-09-09T02:40:37;6.28;;;5.68;;
6348;SDS011;3207;42.648;23.406;2022-09-09T02:43:04;6.85;;;6.03;;
6348;SDS011;3207;42.648;23.406;2022-09-09T02:45:32;8.30;;;5.82;;
6348;SDS011;3207;42.648;23.406;2022-09-09T02:48:09;7.15;;;6.45;;
6348;SDS011;3207;42.648;23.406;2022-09-09T02:50:41;10.00;;;5.82;;
6348;SDS011;3207;42.648;23.406;2022-09-09T02:53:16;6.18;;;4.75;;
6348;SDS011;3207;42.648;23.406;2022-09-09T02:55:46;12.32;;;4.82;;
6348;SDS011;3207;42.648;23.406;2022-09-09T02:58:15;8.95;;;6.78;;
6348;SDS011;3207;42.648;23.406;2022-09-09T03:00:44;7.72;;;5.72;;
6348;SDS011;3207;42.648;23.406;2022-09-09T03:03:14;7.63;;;5.82;;
6348;SDS011;3207;42.648;23.406;2022-09-09T03:05:42;6.65;;;5.40;;
6348;SDS011;3207;42.648;23.406;2022-09-09T03:08:09;5.85;;;4.70;;
6348;SDS011;3207;42.648;23.406;2022-09-09T03:10:36;4.85;;;4.45;;
6348;SDS011;3207;42.648;23.406;2022-09-09T03:13:03;5.57;;;4.35;;
6348;SDS011;3207;42.648;23.406;2022-09-09T03:15:33;5.13;;;4.53;;
6348;SDS011;3207;42.648;23.406;2022-09-09T03:18:01;6.80;;;3.72;;
6348;SDS011;3207;42.648;23.406;2022-09-09T03:20:29;3.88;;;3.28;;
6348;SDS011;3207;42.648;23.406;2022-09-09T03:22:57;5.05;;;3.97;;
6348;SDS011;3207;42.648;23.406;2022-09-09T03:25:25;4.20;;;3.67;;
6348;SDS011;3207;42.648;23.406;2022-09-09T03:27:53;4.15;;;3.75;;
6348;SDS011;3207;42.648;23.406;2022-09-09T03:30:21;7.50;;;3.30;;
6348;SDS011;3207;42.648;23.406;2022-09-09T03:32:48;4.70;;;3.28;;
6348;SDS011;3207;42.648;23.406;2022-09-09T03:35:15;5.18;;;3.40;;
6348;SDS011;3207;42.648;23.406;2022-09-09T03:37:44;3.75;;;3.25;;
6348;SDS011;3207;42.648;23.406;2022-09-09T03:40:11;3.60;;;2.85;;
6348;SDS011;3207;42.648;23.406;2022-09-09T03:42:38;2.70;;;2.47;;
6348;SDS011;3207;42.648;23.406;2022-09-09T03:45:07;3.40;;;2.72;;
6348;SDS011;3207;42.648;23.406;2022-09-09T03:47:35;4.93;;;2.53;;
6348;SDS011;3207;42.648;23.406;2022-09-09T03:50:03;3.53;;;2.28;;
6348;SDS011;3207;42.648;23.406;2022-09-09T03:52:34;2.55;;;2.35;;
6348;SDS011;3207;42.648;23.406;2022-09-09T03:55:02;4.07;;;2.17;;
6348;SDS011;3207;42.648;23.406;2022-09-09T03:57:30;2.38;;;2.17;;
6348;SDS011;3207;42.648;23.406;2022-09-09T03:59:57;2.42;;;2.22;;
6348;SDS011;3207;42.648;23.406;2022-09-09T04:02:26;3.13;;;2.25;;
6348;SDS011;3207;42.648;23.406;2022-09-09T04:04:53;2.35;;;2.05;;
6348;SDS011;3207;42.648;23.406;2022-09-09T04:07:19;3.17;;;2.40;;
6348;SDS011;3207;42.648;23.406;2022-09-09T04:09:46;3.78;;;2.05;;
6348;SDS011;3207;42.648;23.406;2022-09-09T04:12:14;3.67;;;3.10;;
6348;SDS011;3207;42.648;23.406;2022-09-09T04:14:41;3.67;;;2.40;;
6348;SDS011;3207;42.648;23.406;2022-09-09T04:17:08;6.97;;;2.20;;
6348;SDS011;3207;42.648;23.406;2022-09-09T04:19:35;2.30;;;2.10;;
6348;SDS011;3207;42.648;23.406;2022-09-09T04:22:01;2.80;;;2.05;;
6348;SDS011;3207;42.648;23.406;2022-09-09T04:24:28;2.55;;;2.13;;
6348;SDS011;3207;42.648;23.406;2022-09-09T04:26:55;2.50;;;2.10;;
6348;SDS011;3207;42.648;23.406;2022-09-09T04:29:23;4.45;;;2.72;;
6348;SDS011;3207;42.648;23.406;2022-09-09T04:31:50;2.25;;;2.08;;
6348;SDS011;3207;42.648;23.406;2022-09-09T04:34:18;5.68;;;2.63;;
6348;SDS011;3207;42.648;23.406;2022-09-09T04:36:45;2.30;;;2.10;;
6348;SDS011;3207;42.648;23.406;2022-09-09T04:39:11;2.38;;;2.17;;
6348;SDS011;3207;42.648;23.406;2022-09-09T04:41:39;1.50;;;1.40;;
6348;SDS011;3207;42.648;23.406;2022-09-09T04:44:06;2.88;;;2.33;;
6348;SDS011;3207;42.648;23.406;2022-09-09T04:46:34;2.65;;;1.90;;
6348;SDS011;3207;42.648;23.406;2022-09-09T04:49:01;1.70;;;1.60;;
6348;SDS011;3207;42.648;23.406;2022-09-09T04:51:28;2.28;;;1.55;;
6348;SDS011;3207;42.648;23.406;2022-09-09T04:53:56;4.68;;;2.42;;
6348;SDS011;3207;42.648;23.406;2022-09-09T04:56:23;2.70;;;1.75;;
6348;SDS011;3207;42.648;23.406;2022-09-09T04:58:51;1.65;;;1.55;;
6348;SDS011;3207;42.648;23.406;2022-09-09T05:01:20;5.35;;;1.80;;
6348;SDS011;3207;42.648;23.406;2022-09-09T05:03:50;2.83;;;1.60;;
6348;SDS011;3207;42.648;23.406;2022-09-09T05:06:18;1.45;;;1.00;;
6348;SDS011;3207;42.648;23.406;2022-09-09T05:08:47;2.53;;;1.30;;
6348;SDS011;3207;42.648;23.406;2022-09-09T05:11:18;1.50;;;1.20;;
6348;SDS011;3207;42.648;23.406;2022-09-09T05:13:47;1.30;;;1.20;;
6348;SDS011;3207;42.648;23.406;2022-09-09T05:16:15;1.95;;;0.98;;
6348;SDS011;3207;42.648;23.406;2022-09-09T05:18:42;1.80;;;1.35;;
6348;SDS011;3207;42.648;23.406;2022-09-09T05:21:12;0.90;;;0.90;;
6348;SDS011;3207;42.648;23.406;2022-09-09T05:23:40;0.90;;;0.90;;
6348;SDS011;3207;42.648;23.406;2022-09-09T05:26:09;2.92;;;1.33;;
6348;SDS011;3207;42.648;23.406;2022-09-09T05:28:38;1.40;;;0.90;;
6348;SDS011;3207;42.648;23.406;2022-09-09T05:31:05;1.10;;;1.00;;
6348;SDS011;3207;42.648;23.406;2022-09-09T05:33:34;1.52;;;1.20;;
6348;SDS011;3207;42.648;23.406;2022-09-09T05:36:02;1.83;;;1.15;;
6348;SDS011;3207;42.648;23.406;2022-09-09T05:38:32;1.77;;;1.20;;
6348;SDS011;3207;42.648;23.406;2022-09-09T05:40:59;3.63;;;1.33;;
6348;SDS011;3207;42.648;23.406;2022-09-09T05:43:26;2.17;;;1.10;;
6348;SDS011;3207;42.648;23.406;2022-09-09T05:46:00;1.58;;;1.30;;
6348;SDS011;3207;42.648;23.406;2022-09-09T05:48:29;2.67;;;1.40;;
6348;SDS011;3207;42.648;23.406;2022-09-09T05:50:57;1.55;;;1.45;;
6348;SDS011;3207;42.648;23.406;2022-09-09T05:53:24;3.97;;;1.85;;
6348;SDS011;3207;42.648;23.406;2022-09-09T05:55:59;1.33;;;1.23;;
6348;SDS011;3207;42.648;23.406;2022-09-09T05:58:28;6.28;;;2.08;;
6348;SDS011;3207;42.648;23.406;2022-09-09T06:01:00;2.17;;;1.77;;
6348;SDS011;3207;42.648;23.406;2022-09-09T06:03:28;2.58;;;1.77;;
6348;SDS011;3207;42.648;23.406;2022-09-09T06:05:58;1.98;;;1.55;;
6348;SDS011;3207;42.648;23.406;2022-09-09T06:08:25;2.00;;;1.60;;
6348;SDS011;3207;42.648;23.406;2022-09-09T06:10:52;4.55;;;2.20;;
6348;SDS011;3207;42.648;23.406;2022-09-09T06:13:20;4.72;;;1.73;;
6348;SDS011;3207;42.648;23.406;2022-09-09T06:15:50;1.92;;;1.65;;
6348;SDS011;3207;42.648;23.406;2022-09-09T06:18:17;3.05;;;2.03;;
6348;SDS011;3207;42.648;23.406;2022-09-09T06:20:53;2.20;;;1.70;;
6348;SDS011;3207;42.648;23.406;2022-09-09T06:23:20;3.20;;;1.75;;
6348;SDS011;3207;42.648;23.406;2022-09-09T06:25:47;3.53;;;1.63;;
6348;SDS011;3207;42.648;23.406;2022-09-09T06:28:16;4.45;;;1.38;;
6348;SDS011;3207;42.648;23.406;2022-09-09T06:30:44;1.90;;;1.60;;
6348;SDS011;3207;42.648;23.406;2022-09-09T06:33:12;2.42;;;1.55;;
6348;SDS011;3207;42.648;23.406;2022-09-09T06:35:39;3.53;;;1.55;;
6348;SDS011;3207;42.648;23.406;2022-09-09T06:38:05;5.90;;;1.88;;
6348;SDS011;3207;42.648;23.406;2022-09-09T06:40:33;2.13;;;1.48;;
6348;SDS011;3207;42.648;23.406;2022-09-09T06:43:00;1.90;;;1.70;;
6348;SDS011;3207;42.648;23.406;2022-09-09T06:45:27;2.35;;;1.85;;
6348;SDS011;3207;42.648;23.406;2022-09-09T06:47:56;1.50;;;1.30;;
6348;SDS011;3207;42.648;23.406;2022-09-09T06:50:22;4.47;;;1.33;;
6348;SDS011;3207;42.648;23.406;2022-09-09T06:52:50;1.70;;;1.45;;
6348;SDS011;3207;42.648;23.406;2022-09-09T06:55:16;3.53;;;1.67;;
6348;SDS011;3207;42.648;23.406;2022-09-09T06:57:44;3.08;;;1.63;;
6348;SDS011;3207;42.648;23.406;2022-09-09T07:00:11;1.48;;;1.35;;
6348;SDS011;3207;42.648;23.406;2022-09-09T07:02:39;2.15;;;1.63;;
6348;SDS011;3207;42.648;23.406;2022-09-09T07:05:08;1.98;;;1.80;;
6348;SDS011;3207;42.648;23.406;2022-09-09T07:07:35;1.60;;;1.27;;
6348;SDS011;3207;42.648;23.406;2022-09-09T07:10:03;2.63;;;1.55;;
6348;SDS011;3207;42.648;23.406;2022-09-09T07:12:30;2.50;;;1.85;;
6348;SDS011;3207;42.648;23.406;2022-09-09T07:14:57;3.63;;;1.90;;
6348;SDS011;3207;42.648;23.406;2022-09-09T07:17:24;3.67;;;1.42;;
6348;SDS011;3207;42.648;23.406;2022-09-09T07:19:51;2.55;;;2.00;;
6348;SDS011;3207;42.648;23.406;2022-09-09T07:22:19;6.50;;;1.58;;
6348;SDS011;3207;42.648;23.406;2022-09-09T07:24:46;3.88;;;1.40;;
6348;SDS011;3207;42.648;23.406;2022-09-09T07:27:14;4.43;;;2.13;;
6348;SDS011;3207;42.648;23.406;2022-09-09T07:29:41;2.97;;;1.27;;
6348;SDS011;3207;42.648;23.406;2022-09-09T07:32:08;3.47;;;1.33;;
6348;SDS011;3207;42.648;23.406;2022-09-09T07:34:35;0.93;;;0.80;;
6348;SDS011;3207;42.648;23.406;2022-09-09T07:37:02;1.48;;;1.38;;
6348;SDS011;3207;42.648;23.406;2022-09-09T07:39:30;4.50;;;1.50;;
6348;SDS011;3207;42.648;23.406;2022-09-09T07:41:56;3.08;;;1.75;;
6348;SDS011;3207;42.648;23.406;2022-09-09T07:44:24;2.17;;;1.58;;
6348;SDS011;3207;42.648;23.406;2022-09-09T07:46:52;2.40;;;1.52;;
6348;SDS011;3207;42.648;23.406;2022-09-09T07:49:18;1.92;;;1.58;;
6348;SDS011;3207;42.648;23.406;2022-09-09T07:51:46;2.72;;;1.67;;
6348;SDS011;3207;42.648;23.406;2022-09-09T07:54:15;4.45;;;1.50;;
6348;SDS011;3207;42.648;23.406;2022-09-09T07:56:46;1.33;;;1.23;;
6348;SDS011;3207;42.648;23.406;2022-09-09T07:59:13;6.03;;;1.35;;
6348;SDS011;3207;42.648;23.406;2022-09-09T08:01:41;1.55;;;1.45;;
6348;SDS011;3207;42.648;23.406;2022-09-09T08:04:11;1.38;;;1.27;;
6348;SDS011;3207;42.648;23.406;2022-09-09T08:06:42;3.88;;;1.80;;
6348;SDS011;3207;42.648;23.406;2022-09-09T08:09:10;2.72;;;1.40;;
6348;SDS011;3207;42.648;23.406;2022-09-09T08:11:38;2.92;;;1.40;;
6348;SDS011;3207;42.648;23.406;2022-09-09T08:14:07;3.58;;;1.33;;
6348;SDS011;3207;42.648;23.406;2022-09-09T08:16:35;1.58;;;1.27;;
6348;SDS011;3207;42.648;23.406;2022-09-09T08:19:04;3.28;;;1.60;;
6348;SDS011;3207;42.648;23.406;2022-09-09T08:21:32;1.40;;;1.30;;
6348;SDS011;3207;42.648;23.406;2022-09-09T08:24:01;1.40;;;1.30;;
6348;SDS011;3207;42.648;23.406;2022-09-09T08:26:30;1.20;;;0.93;;
6348;SDS011;3207;42.648;23.406;2022-09-09T08:28:59;1.60;;;1.50;;
6348;SDS011;3207;42.648;23.406;2022-09-09T08:31:30;1.50;;;1.40;;
6348;SDS011;3207;42.648;23.406;2022-09-09T08:34:06;2.22;;;1.17;;
6348;SDS011;3207;42.648;23.406;2022-09-09T08:36:35;1.20;;;1.10;;
6348;SDS011;3207;42.648;23.406;2022-09-09T08:39:03;3.53;;;1.80;;
6348;SDS011;3207;42.648;23.406;2022-09-09T08:41:38;1.08;;;1.08;;
6348;SDS011;3207;42.648;23.406;2022-09-09T08:44:14;3.28;;;1.05;;
6348;SDS011;3207;42.648;23.406;2022-09-09T08:46:52;2.35;;;1.33;;
6348;SDS011;3207;42.648;23.406;2022-09-09T08:49:37;1.33;;;1.23;;
6348;SDS011;3207;42.648;23.406;2022-09-09T08:52:16;2.03;;;1.40;;
6348;SDS011;3207;42.648;23.406;2022-09-09T08:54:46;5.63;;;1.38;;
6348;SDS011;3207;42.648;23.406;2022-09-09T08:57:14;1.45;;;1.10;;
6348;SDS011;3207;42.648;23.406;2022-09-09T08:59:54;1.95;;;1.00;;
6348;SDS011;3207;42.648;23.406;2022-09-09T09:02:24;1.40;;;1.30;;
6348;SDS011;3207;42.648;23.406;2022-09-09T09:05:00;1.50;;;1.40;;
6348;SDS011;3207;42.648;23.406;2022-09-09T09:07:45;1.65;;;1.55;;
6348;SDS011;3207;42.648;23.406;2022-09-09T09:10:31;2.60;;;1.30;;
6348;SDS011;3207;42.648;23.406;2022-09-09T09:13:10;1.23;;;1.13;;
6348;SDS011;3207;42.648;23.406;2022-09-09T09:15:41;1.27;;;1.17;;
6348;SDS011;3207;42.648;23.406;2022-09-09T09:18:12;1.92;;;1.55;;
6348;SDS011;3207;42.648;23.406;2022-09-09T09:20:42;1.30;;;1.20;;
6348;SDS011;3207;42.648;23.406;2022-09-09T09:23:19;2.45;;;1.30;;
6348;SDS011;3207;42.648;23.406;2022-09-09T09:25:48;3.03;;;1.98;;
6348;SDS011;3207;42.648;23.406;2022-09-09T09:28:19;1.50;;;1.40;;
6348;SDS011;3207;42.648;23.406;2022-09-09T09:30:50;1.48;;;1.38;;
6348;SDS011;3207;42.648;23.406;2022-09-09T09:33:22;1.50;;;1.35;;
6348;SDS011;3207;42.648;23.406;2022-09-09T09:35:54;1.50;;;1.40;;
6348;SDS011;3207;42.648;23.406;2022-09-09T09:38:22;2.55;;;1.23;;
6348;SDS011;3207;42.648;23.406;2022-09-09T09:40:50;2.20;;;1.10;;
6348;SDS011;3207;42.648;23.406;2022-09-09T09:43:20;1.25;;;1.15;;
6348;SDS011;3207;42.648;23.406;2022-09-09T09:45:50;1.75;;;1.23;;
6348;SDS011;3207;42.648;23.406;2022-09-09T09:48:17;1.42;;;1.08;;
6348;SDS011;3207;42.648;23.406;2022-09-09T09:50:49;2.10;;;1.17;;
6348;SDS011;3207;42.648;23.406;2022-09-09T09:53:22;1.42;;;1.15;;
6348;SDS011;3207;42.648;23.406;2022-09-09T09:55:52;1.50;;;1.40;;
6348;SDS011;3207;42.648;23.406;2022-09-09T09:58:24;1.60;;;1.13;;
6348;SDS011;3207;42.648;23.406;2022-09-09T10:00:55;1.77;;;1.30;;
6348;SDS011;3207;42.648;23.406;2022-09-09T10:03:23;3.58;;;1.00;;
6348;SDS011;3207;42.648;23.406;2022-09-09T10:05:54;1.10;;;1.10;;
6348;SDS011;3207;42.648;23.406;2022-09-09T10:08:21;1.50;;;1.40;;
6348;SDS011;3207;42.648;23.406;2022-09-09T10:10:51;1.60;;;1.40;;
6348;SDS011;3207;42.648;23.406;2022-09-09T10:13:31;3.15;;;1.80;;
6348;SDS011;3207;42.648;23.406;2022-09-09T10:16:13;1.52;;;1.42;;
6348;SDS011;3207;42.648;23.406;2022-09-09T10:18:55;1.42;;;1.33;;
6348;SDS011;3207;42.648;23.406;2022-09-09T10:21:38;2.00;;;1.23;;
6348;SDS011;3207;42.648;23.406;2022-09-09T10:24:28;1.83;;;1.33;;
6348;SDS011;3207;42.648;23.406;2022-09-09T10:27:11;3.38;;;1.45;;
6348;SDS011;3207;42.648;23.406;2022-09-09T10:29:53;3.03;;;1.85;;
6348;SDS011;3207;42.648;23.406;2022-09-09T10:32:36;1.23;;;1.13;;
6348;SDS011;3207;42.648;23.406;2022-09-09T10:35:11;2.70;;;1.40;;
6348;SDS011;3207;42.648;23.406;2022-09-09T10:37:50;1.77;;;1.40;;
6348;SDS011;3207;42.648;23.406;2022-09-09T10:40:31;3.28;;;1.10;;
6348;SDS011;3207;42.648;23.406;2022-09-09T10:43:07;1.38;;;1.27;;
6348;SDS011;3207;42.648;23.406;2022-09-09T10:45:43;1.38;;;1.20;;
6348;SDS011;3207;42.648;23.406;2022-09-09T10:48:30;1.88;;;1.15;;
6348;SDS011;3207;42.648;23.406;2022-09-09T10:51:09;2.65;;;1.40;;
6348;SDS011;3207;42.648;23.406;2022-09-09T10:53:52;3.08;;;2.13;;
6348;SDS011;3207;42.648;23.406;2022-09-09T10:56:30;1.48;;;1.17;;
6348;SDS011;3207;42.648;23.406;2022-09-09T10:58:58;4.80;;;1.35;;
6348;SDS011;3207;42.648;23.406;2022-09-09T11:01:30;2.88;;;1.42;;
6348;SDS011;3207;42.648;23.406;2022-09-09T11:04:03;2.92;;;1.23;;
6348;SDS011;3207;42.648;23.406;2022-09-09T11:06:36;1.60;;;1.42;;
6348;SDS011;3207;42.648;23.406;2022-09-09T11:09:09;1.95;;;1.60;;
6348;SDS011;3207;42.648;23.406;2022-09-09T11:11:44;4.63;;;2.05;;
6348;SDS011;3207;42.648;23.406;2022-09-09T11:14:18;3.33;;;1.30;;
6348;SDS011;3207;42.648;23.406;2022-09-09T11:16:53;1.48;;;1.25;;
6348;SDS011;3207;42.648;23.406;2022-09-09T11:19:24;6.93;;;3.95;;
6348;SDS011;3207;42.648;23.406;2022-09-09T11:21:59;7.85;;;3.63;;
6348;SDS011;3207;42.648;23.406;2022-09-09T11:24:31;4.40;;;1.77;;
6348;SDS011;3207;42.648;23.406;2022-09-09T11:27:05;1.40;;;1.30;;
6348;SDS011;3207;42.648;23.406;2022-09-09T11:35:31;1.40;;;1.23;;
6348;SDS011;3207;42.648;23.406;2022-09-09T11:38:21;1.42;;;0.98;;
6348;SDS011;3207;42.648;23.406;2022-09-09T11:40:58;1.38;;;1.23;;
6348;SDS011;3207;42.648;23.406;2022-09-09T11:43:28;2.67;;;1.20;;
6348;SDS011;3207;42.648;23.406;2022-09-09T11:45:58;3.72;;;1.58;;
6348;SDS011;3207;42.648;23.406;2022-09-09T11:48:29;2.08;;;1.33;;
6348;SDS011;3207;42.648;23.406;2022-09-09T11:51:00;4.30;;;1.17;;
6348;SDS011;3207;42.648;23.406;2022-09-09T11:53:30;5.38;;;2.40;;
6348;SDS011;3207;42.648;23.406;2022-09-09T11:56:06;4.35;;;1.52;;
6348;SDS011;3207;42.648;23.406;2022-09-09T11:58:38;1.60;;;1.50;;
6348;SDS011;3207;42.648;23.406;2022-09-09T12:01:25;3.15;;;1.63;;
6348;SDS011;3207;42.648;23.406;2022-09-09T12:03:57;3.13;;;1.42;;
6348;SDS011;3207;42.648;23.406;2022-09-09T12:06:32;1.58;;;1.48;;
6348;SDS011;3207;42.648;23.406;2022-09-09T12:09:08;2.00;;;1.33;;
6348;SDS011;3207;42.648;23.406;2022-09-09T12:11:43;3.80;;;1.60;;
6348;SDS011;3207;42.648;23.406;2022-09-09T12:14:18;2.45;;;1.30;;
6348;SDS011;3207;42.648;23.406;2022-09-09T12:16:47;2.90;;;1.60;;
6348;SDS011;3207;42.648;23.406;2022-09-09T12:19:16;5.20;;;1.73;;
6348;SDS011;3207;42.648;23.406;2022-09-09T12:21:49;3.60;;;1.60;;
6348;SDS011;3207;42.648;23.406;2022-09-09T12:24:23;1.70;;;1.35;;
6348;SDS011;3207;42.648;23.406;2022-09-09T12:27:00;5.60;;;2.00;;
6348;SDS011;3207;42.648;23.406;2022-09-09T12:29:37;4.78;;;2.42;;
6348;SDS011;3207;42.648;23.406;2022-09-09T12:32:10;5.95;;;2.20;;
6348;SDS011;3207;42.648;23.406;2022-09-09T12:34:39;1.98;;;1.88;;
6348;SDS011;3207;42.648;23.406;2022-09-09T12:37:12;1.50;;;1.40;;
6348;SDS011;3207;42.648;23.406;2022-09-09T12:39:44;2.10;;;1.90;;
6348;SDS011;3207;42.648;23.406;2022-09-09T12:42:18;4.35;;;1.83;;
6348;SDS011;3207;42.648;23.406;2022-09-09T12:44:53;4.30;;;2.17;;
6348;SDS011;3207;42.648;23.406;2022-09-09T12:47:21;4.05;;;1.55;;
6348;SDS011;3207;42.648;23.406;2022-09-09T12:49:52;2.88;;;1.75;;
6348;SDS011;3207;42.648;23.406;2022-09-09T12:52:23;5.57;;;2.00;;
6348;SDS011;3207;42.648;23.406;2022-09-09T12:54:55;2.97;;;1.88;;
6348;SDS011;3207;42.648;23.406;2022-09-09T12:57:24;4.68;;;1.77;;
6348;SDS011;3207;42.648;23.406;2022-09-09T13:00:03;8.00;;;6.63;;
6348;SDS011;3207;42.648;23.406;2022-09-09T13:02:32;3.72;;;2.67;;
6348;SDS011;3207;42.648;23.406;2022-09-09T13:05:06;7.68;;;2.03;;
6348;SDS011;3207;42.648;23.406;2022-09-09T13:07:40;2.65;;;1.90;;
6348;SDS011;3207;42.648;23.406;2022-09-09T13:10:10;3.92;;;2.20;;
6348;SDS011;3207;42.648;23.406;2022-09-09T13:12:39;2.45;;;2.22;;
6348;SDS011;3207;42.648;23.406;2022-09-09T13:15:11;5.63;;;2.17;;
6348;SDS011;3207;42.648;23.406;2022-09-09T13:17:49;6.10;;;2.30;;
6348;SDS011;3207;42.648;23.406;2022-09-09T13:20:19;2.05;;;1.85;;
6348;SDS011;3207;42.648;23.406;2022-09-09T13:22:47;2.30;;;2.10;;
6348;SDS011;3207;42.648;23.406;2022-09-09T13:25:19;6.70;;;2.50;;
6348;SDS011;3207;42.648;23.406;2022-09-09T13:28:02;3.00;;;2.20;;
6348;SDS011;3207;42.648;23.406;2022-09-09T13:30:30;2.50;;;1.80;;
6348;SDS011;3207;42.648;23.406;2022-09-09T13:33:02;4.15;;;2.03;;
6348;SDS011;3207;42.648;23.406;2022-09-09T13:35:31;4.32;;;2.22;;
6348;SDS011;3207;42.648;23.406;2022-09-09T13:37:59;3.53;;;2.47;;
6348;SDS011;3207;42.648;23.406;2022-09-09T13:40:33;4.38;;;3.00;;
6348;SDS011;3207;42.648;23.406;2022-09-09T13:43:03;3.25;;;2.22;;
6348;SDS011;3207;42.648;23.406;2022-09-09T13:45:30;2.88;;;2.58;;
6348;SDS011;3207;42.648;23.406;2022-09-09T13:47:59;3.25;;;2.40;;
6348;SDS011;3207;42.648;23.406;2022-09-09T13:50:35;3.08;;;2.17;;
6348;SDS011;3207;42.648;23.406;2022-09-09T13:53:02;2.50;;;2.25;;
6348;SDS011;3207;42.648;23.406;2022-09-09T13:55:29;3.15;;;2.30;;
6348;SDS011;3207;42.648;23.406;2022-09-09T13:57:56;2.30;;;2.10;;
6348;SDS011;3207;42.648;23.406;2022-09-09T14:00:28;2.15;;;1.75;;
6348;SDS011;3207;42.648;23.406;2022-09-09T14:02:56;4.30;;;1.80;;
6348;SDS011;3207;42.648;23.406;2022-09-09T14:05:26;3.63;;;2.20;;
6348;SDS011;3207;42.648;23.406;2022-09-09T14:07:53;4.70;;;4.30;;
6348;SDS011;3207;42.648;23.406;2022-09-09T14:10:20;3.58;;;3.20;;
6348;SDS011;3207;42.648;23.406;2022-09-09T14:12:47;2.75;;;2.55;;
6348;SDS011;3207;42.648;23.406;2022-09-09T14:15:14;3.53;;;2.28;;
6348;SDS011;3207;42.648;23.406;2022-09-09T14:17:43;3.67;;;2.00;;
6348;SDS011;3207;42.648;23.406;2022-09-09T14:20:10;4.50;;;2.33;;
6348;SDS011;3207;42.648;23.406;2022-09-09T14:22:40;4.57;;;1.92;;
6348;SDS011;3207;42.648;23.406;2022-09-09T14:25:09;2.33;;;1.73;;
6348;SDS011;3207;42.648;23.406;2022-09-09T14:27:36;2.13;;;1.60;;
6348;SDS011;3207;42.648;23.406;2022-09-09T14:30:04;3.33;;;1.50;;
6348;SDS011;3207;42.648;23.406;2022-09-09T14:32:32;1.95;;;1.77;;
6348;SDS011;3207;42.648;23.406;2022-09-09T14:35:00;4.72;;;2.30;;
6348;SDS011;3207;42.648;23.406;2022-09-09T14:37:27;2.17;;;1.73;;
6348;SDS011;3207;42.648;23.406;2022-09-09T14:39:56;4.50;;;1.88;;
6348;SDS011;3207;42.648;23.406;2022-09-09T14:42:23;5.25;;;2.20;;
6348;SDS011;3207;42.648;23.406;2022-09-09T14:44:49;3.38;;;1.80;;
6348;SDS011;3207;42.648;23.406;2022-09-09T14:47:16;5.30;;;2.00;;
6348;SDS011;3207;42.648;23.406;2022-09-09T14:49:43;4.40;;;1.92;;
6348;SDS011;3207;42.648;23.406;2022-09-09T14:52:12;4.18;;;1.90;;
6348;SDS011;3207;42.648;23.406;2022-09-09T14:54:39;6.90;;;2.28;;
6348;SDS011;3207;42.648;23.406;2022-09-09T14:57:05;3.05;;;2.20;;
6348;SDS011;3207;42.648;23.406;2022-09-09T14:59:32;2.25;;;1.85;;
6348;SDS011;3207;42.648;23.406;2022-09-09T15:01:59;5.45;;;2.17;;
6348;SDS011;3207;42.648;23.406;2022-09-09T15:04:29;2.85;;;2.22;;
6348;SDS011;3207;42.648;23.406;2022-09-09T15:06:56;1.98;;;1.60;;
6348;SDS011;3207;42.648;23.406;2022-09-09T15:09:24;4.10;;;2.00;;
6348;SDS011;3207;42.648;23.406;2022-09-09T15:11:51;2.53;;;2.13;;
6348;SDS011;3207;42.648;23.406;2022-09-09T15:14:18;6.20;;;5.60;;
6348;SDS011;3207;42.648;23.406;2022-09-09T15:16:45;3.95;;;3.55;;
6348;SDS011;3207;42.648;23.406;2022-09-09T15:19:11;5.07;;;2.90;;
6348;SDS011;3207;42.648;23.406;2022-09-09T15:21:38;2.72;;;1.83;;
6348;SDS011;3207;42.648;23.406;2022-09-09T15:24:05;8.13;;;2.05;;
6348;SDS011;3207;42.648;23.406;2022-09-09T15:26:34;3.80;;;2.28;;
6348;SDS011;3207;42.648;23.406;2022-09-09T15:29:03;2.67;;;2.17;;